sensor_id;sensor_type;location;lat;lon;timestamp;temperature;humidity
8886;DHT22;4479;51.162;13.906;2023-03-12T00:04:45;0.60;99.90
8886;DHT22;4479;51.162;13.906;2023-03-12T00:24:52;3.10;99.90
8886;DHT22;4479;51.162;13.906;2023-03-12T00:44:59;0.50;99.90
8886;DHT22;4479;51.162;13.906;2023-03-12T01:05:06;0.40;99.90
8886;DHT22;4479;51.162;13.906;2023-03-12T01:56:07;0.40;99.90
8886;DHT22;4479;51.162;13.906;2023-03-12T02:46:28;0.30;99.90
8886;DHT22;4479;51.162;13.906;2023-03-12T03:06:37;0.30;99.90
8886;DHT22;4479;51.162;13.906;2023-03-12T07:18:09;3.30;99.90
8886;DHT22;4479;51.162;13.906;2023-03-12T07:28:14;3.60;99.90
8886;DHT22;4479;51.162;13.906;2023-03-12T08:08:27;4.70;99.90
8886;DHT22;4479;51.162;13.906;2023-03-12T08:28:37;8.70;99.90
8886;DHT22;4479;51.162;13.906;2023-03-12T08:48:43;6.00;99.90
8886;DHT22;4479;51.162;13.906;2023-03-12T09:08:49;6.90;99.90
8886;DHT22;4479;51.162;13.906;2023-03-12T09:28:57;7.60;99.90
8886;DHT22;4479;51.162;13.906;2023-03-12T09:49:13;8.10;99.90
8886;DHT22;4479;51.162;13.906;2023-03-12T10:09:37;8.40;99.90
8886;DHT22;4479;51.162;13.906;2023-03-12T10:20:15;8.50;99.90
8886;DHT22;4479;51.162;13.906;2023-03-12T10:30:45;8.60;99.90
8886;DHT22;4479;51.162;13.906;2023-03-12T10:51:05;9.20;99.90
8886;DHT22;4479;51.162;13.906;2023-03-12T11:01:18;9.50;99.90
8886;DHT22;4479;51.162;13.906;2023-03-12T11:11:32;9.60;99.90
8886;DHT22;4479;51.162;13.906;2023-03-12T11:31:44;10.10;99.90
8886;DHT22;4479;51.162;13.906;2023-03-12T11:42:16;10.30;99.90
8886;DHT22;4479;51.162;13.906;2023-03-12T11:52:37;10.40;99.90
8886;DHT22;4479;51.162;13.906;2023-03-12T12:13:39;10.40;99.90
8886;DHT22;4479;51.162;13.906;2023-03-12T12:23:52;10.30;99.90
8886;DHT22;4479;51.162;13.906;2023-03-12T12:44:54;10.60;99.90
8886;DHT22;4479;51.162;13.906;2023-03-12T12:55:17;10.60;99.90
8886;DHT22;4479;51.162;13.906;2023-03-12T13:05:27;10.60;99.90
8886;DHT22;4479;51.162;13.906;2023-03-12T13:16:25;10.70;99.90
8886;DHT22;4479;51.162;13.906;2023-03-12T13:26:41;10.70;99.90
8886;DHT22;4479;51.162;13.906;2023-03-12T13:36:55;10.70;99.90
8886;DHT22;4479;51.162;13.906;2023-03-12T13:47:01;12.50;99.90
8886;DHT22;4479;51.162;13.906;2023-03-12T13:57:12;10.50;99.90
8886;DHT22;4479;51.162;13.906;2023-03-12T14:07:39;10.50;99.90
8886;DHT22;4479;51.162;13.906;2023-03-12T14:17:56;10.50;99.90
8886;DHT22;4479;51.162;13.906;2023-03-12T14:28:00;10.30;99.90
8886;DHT22;4479;51.162;13.906;2023-03-12T14:38:06;10.30;99.90
8886;DHT22;4479;51.162;13.906;2023-03-12T14:48:19;10.20;99.90
8886;DHT22;4479;51.162;13.906;2023-03-12T14:58:23;10.10;99.90
8886;DHT22;4479;51.162;13.906;2023-03-12T15:18:30;9.90;99.90
8886;DHT22;4479;51.162;13.906;2023-03-12T15:38:44;9.30;99.90
8886;DHT22;4479;51.162;13.906;2023-03-12T15:48:49;9.10;99.90
8886;DHT22;4479;51.162;13.906;2023-03-12T15:59:03;9.00;99.90
8886;DHT22;4479;51.162;13.906;2023-03-12T16:09:21;8.80;99.90
8886;DHT22;4479;51.162;13.906;2023-03-12T16:19:28;8.60;99.90
8886;DHT22;4479;51.162;13.906;2023-03-12T16:29:35;8.50;99.90
8886;DHT22;4479;51.162;13.906;2023-03-12T16:39:40;8.40;99.90
8886;DHT22;4479;51.162;13.906;2023-03-12T16:49:46;8.30;99.90
8886;DHT22;4479;51.162;13.906;2023-03-12T19:40:52;8.80;99.90
8886;DHT22;4479;51.162;13.906;2023-03-12T20:01:07;9.00;99.90
8886;DHT22;4479;51.162;13.906;2023-03-12T20:21:13;9.20;99.90
8886;DHT22;4479;51.162;13.906;2023-03-12T20:31:16;9.20;99.90
8886;DHT22;4479;51.162;13.906;2023-03-12T20:41:20;9.30;99.90
8886;DHT22;4479;51.162;13.906;2023-03-12T21:01:26;9.40;99.90
8886;DHT22;4479;51.162;13.906;2023-03-12T21:21:32;9.50;99.90
8886;DHT22;4479;51.162;13.906;2023-03-12T21:41:39;9.60;99.90
8886;DHT22;4479;51.162;13.906;2023-03-12T22:01:45;9.70;99.90
8886;DHT22;4479;51.162;13.906;2023-03-12T22:21:51;9.90;99.90
8886;DHT22;4479;51.162;13.906;2023-03-12T22:41:57;9.90;99.90
8886;DHT22;4479;51.162;13.906;2023-03-12T23:02:03;10.00;99.90
8886;DHT22;4479;51.162;13.906;2023-03-12T23:22:10;10.10;99.90
8886;DHT22;4479;51.162;13.906;2023-03-12T23:42:16;10.20;99.90
